Glinton, United Kingdom
Current Conditions -  °F | °C
As of 5:50 PM on Friday 24 Oct 2014 (Local Time) from EGXT Reporting Station
Broken Clouds Broken Clouds  
Wind Chill: 57°   Ceiling: 5000
Heat Index: 57°   Visibility: 6mi
Dew Point: 57°   Wind: 9mph
Humidity: 100%   Direction: 190°S
Pressure: 29.83"   Gusts: NA
Location:  52.64°N, 0.3°W
Report Text: EGXT 241650Z AUTO 19008KT 9999 // FEW038/// BKN050/// 14/14 Q1010
Loading
Personal Weather Stations






























Interactive Weather Map
Tropical Storm Tracking
New forecast layout! Learn more

10-Day Weather Forecast

Advertisements
Track Severe Weather on mobile